Time;durP1;ratioP1;P1;durP2;ratioP2;P2;SDS_P1;SDS_P2;PMS_P1;PMS_P2;Temp;Humidity;BMP_temperature;BMP_pressure;BME280_temperature;BME280_humidity;BME280_pressure;Samples;Min_cycle;Max_cycle;Signal;HPM_P1;HPM_P2
2023/03/26 00:01:22;;;;;;;9.07;2.00;;;7.90;99.90;;;;;;5057331;28;20124;-63
2023/03/26 00:03:52;;;;;;;10.15;2.10;;;7.90;99.90;;;;;;5061848;28;20047;-62
2023/03/26 00:06:47;;;;;;;9.38;2.30;;;7.90;99.90;;;;;;5073799;28;20048;-62
2023/03/26 00:09:14;;;;;;;10.75;1.83;;;7.80;99.90;;;;;;5060177;28;20052;-62
2023/03/26 00:11:41;;;;;;;11.50;2.45;;;7.80;99.90;;;;;;5082230;28;20036;-62
2023/03/26 00:14:08;;;;;;;9.52;2.13;;;7.80;99.90;;;;;;5090954;28;20028;-62
2023/03/26 00:16:34;;;;;;;7.97;2.05;;;7.80;99.90;;;;;;5091156;28;20047;-62
2023/03/26 00:19:01;;;;;;;13.02;2.42;;;7.80;99.90;;;;;;5072448;28;20040;-62
2023/03/26 00:21:29;;;;;;;7.90;1.95;;;7.80;99.90;;;;;;5060726;28;20040;-62
2023/03/26 00:23:58;;;;;;;10.60;2.55;;;7.80;99.90;;;;;;5086846;28;20028;-62
2023/03/26 00:26:25;;;;;;;10.95;2.30;;;7.80;99.90;;;;;;5088655;28;20039;-62
2023/03/26 00:28:50;;;;;;;8.00;1.92;;;7.70;99.90;;;;;;5066676;28;20043;-62
2023/03/26 00:31:17;;;;;;;13.13;2.28;;;7.70;99.90;;;;;;5080058;28;20036;-62
2023/03/26 00:33:42;;;;;;;9.73;2.03;;;7.70;99.90;;;;;;5064066;28;20120;-62
2023/03/26 00:36:14;;;;;;;9.98;2.38;;;7.70;99.90;;;;;;5081660;28;20110;-62
2023/03/26 00:38:40;;;;;;;7.63;2.10;;;7.70;99.90;;;;;;5067023;28;20447;-62
2023/03/26 00:41:16;;;;;;;9.85;1.90;;;7.70;99.90;;;;;;5075033;28;20043;-62
2023/03/26 00:43:44;;;;;;;15.18;2.10;;;7.60;99.90;;;;;;5060578;28;20452;-62
2023/03/26 00:46:10;;;;;;;7.18;2.10;;;7.60;99.90;;;;;;5076104;28;20032;-62
2023/03/26 00:48:37;;;;;;;7.28;2.03;;;7.60;99.90;;;;;;5082234;28;20117;-62
2023/03/26 00:51:04;;;;;;;6.65;2.00;;;7.60;99.90;;;;;;5086923;28;20135;-62
2023/03/26 00:56:00;;;;;;;8.38;2.13;;;7.60;99.90;;;;;;5108974;28;20333;-75
2023/03/26 00:58:26;;;;;;;7.45;2.42;;;7.70;99.90;;;;;;5079174;28;20500;-76
2023/03/26 01:00:57;;;;;;;10.15;2.40;;;7.60;99.90;;;;;;5096086;28;20038;-76
2023/03/26 01:03:24;;;;;;;11.85;2.28;;;7.60;99.90;;;;;;5126555;27;20039;-76
2023/03/26 01:05:52;;;;;;;9.27;2.20;;;7.60;99.90;;;;;;5076896;28;20032;-75
2023/03/26 01:08:46;;;;;;;10.40;2.70;;;7.60;99.90;;;;;;5090030;28;20051;-76
2023/03/26 01:11:22;;;;;;;11.73;2.47;;;7.70;99.90;;;;;;5086160;28;20050;-76
2023/03/26 01:14:08;;;;;;;10.95;2.47;;;7.60;99.90;;;;;;5088926;28;20028;-75
2023/03/26 01:16:44;;;;;;;10.25;2.42;;;7.70;99.90;;;;;;5094223;28;20035;-76
2023/03/26 01:19:28;;;;;;;9.52;1.92;;;7.70;99.90;;;;;;5091404;28;20437;-74
2023/03/26 01:21:53;;;;;;;8.18;2.45;;;7.70;99.90;;;;;;5081136;28;20112;-74
2023/03/26 01:24:19;;;;;;;11.27;2.75;;;7.70;99.90;;;;;;5091002;28;20067;-74
2023/03/26 01:27:08;;;;;;;5.95;2.33;;;7.70;99.90;;;;;;5092793;28;20047;-74
2023/03/26 01:30:16;;;;;;;6.93;2.00;;;7.70;99.90;;;;;;5089329;28;20048;-74
2023/03/26 01:32:49;;;;;;;9.50;2.10;;;7.70;99.90;;;;;;5082990;28;20051;-75
2023/03/26 01:35:29;;;;;;;11.52;2.30;;;7.60;99.90;;;;;;5093175;28;20551;-75
2023/03/26 01:38:09;;;;;;;9.95;2.10;;;7.70;99.90;;;;;;5103395;28;20044;-78
2023/03/26 01:40:45;;;;;;;14.52;2.30;;;7.70;99.90;;;;;;5094632;28;20040;-75
2023/03/26 01:43:31;;;;;;;7.30;2.10;;;7.70;99.90;;;;;;5089242;28;20148;-75
2023/03/26 01:46:00;;;;;;;8.23;2.17;;;7.70;99.90;;;;;;5082619;28;20039;-75
2023/03/26 01:48:46;;;;;;;10.55;2.25;;;7.70;99.90;;;;;;5080041;28;20074;-77
2023/03/26 01:51:13;;;;;;;6.80;2.00;;;7.70;99.90;;;;;;5095269;28;20402;-76
2023/03/26 01:53:42;;;;;;;11.57;2.58;;;7.70;99.90;;;;;;5093676;28;20380;-75
2023/03/26 01:56:20;;;;;;;12.27;2.10;;;7.60;99.90;;;;;;5093958;28;20070;-76
2023/03/26 01:59:15;;;;;;;10.05;2.08;;;7.60;99.90;;;;;;5091701;28;20047;-75
2023/03/26 02:01:59;;;;;;;8.40;2.47;;;7.60;99.90;;;;;;5078058;28;20062;-76
2023/03/26 02:04:44;;;;;;;9.35;2.40;;;7.50;99.90;;;;;;5083219;28;20063;-75
2023/03/26 02:07:37;;;;;;;7.32;2.08;;;7.50;99.90;;;;;;5096929;28;20484;-76
2023/03/26 02:10:09;;;;;;;;;;;7.50;99.90;;;;;;5093162;28;20035;-76
2023/03/26 02:12:35;;;;;;;10.18;2.50;;;7.50;99.90;;;;;;5093940;28;19969;-76
2023/03/26 02:15:01;;;;;;;10.95;2.33;;;7.50;99.90;;;;;;5094254;28;20296;-76
2023/03/26 02:17:28;;;;;;;10.65;2.83;;;7.40;99.90;;;;;;5092944;28;20118;-76
2023/03/26 02:19:55;;;;;;;12.68;2.35;;;7.40;99.90;;;;;;5083627;28;20296;-76
2023/03/26 02:22:28;;;;;;;8.07;2.28;;;7.40;99.90;;;;;;5094094;28;20035;-77
2023/03/26 02:24:54;;;;;;;6.03;1.90;;;7.30;99.90;;;;;;5081646;28;20077;-75
2023/03/26 02:27:20;;;;;;;8.95;2.28;;;7.30;99.90;;;;;;5076406;28;20036;-75
2023/03/26 02:29:46;;;;;;;10.80;2.47;;;7.30;99.90;;;;;;5091739;28;20517;-75
2023/03/26 02:32:12;;;;;;;7.65;2.05;;;7.30;99.90;;;;;;5084261;28;20040;-75
2023/03/26 02:34:41;;;;;;;7.53;2.03;;;7.30;99.90;;;;;;5102007;28;20039;-75
2023/03/26 02:37:07;;;;;;;6.65;2.00;;;7.30;99.90;;;;;;5090216;28;20039;-78
2023/03/26 02:39:34;;;;;;;6.80;2.30;;;7.30;99.90;;;;;;5086981;28;20411;-76
2023/03/26 02:41:59;;;;;;;8.10;2.30;;;7.30;99.90;;;;;;5088737;28;20031;-76
2023/03/26 02:44:26;;;;;;;6.80;2.40;;;7.30;99.90;;;;;;5073113;28;20055;-77
2023/03/26 02:46:51;;;;;;;8.95;2.28;;;7.30;99.90;;;;;;5088124;28;20039;-77
2023/03/26 02:49:17;;;;;;;6.63;2.55;;;7.30;99.90;;;;;;5108264;28;20058;-75
2023/03/26 02:51:42;;;;;;;8.48;2.20;;;7.30;99.90;;;;;;5087656;28;20494;-75
2023/03/26 02:54:08;;;;;;;9.10;2.38;;;7.30;99.90;;;;;;5080582;28;20039;-75
2023/03/26 02:56:34;;;;;;;6.40;2.17;;;7.30;99.90;;;;;;5084703;28;20039;-75
2023/03/26 02:59:00;;;;;;;8.07;2.17;;;7.30;99.90;;;;;;5084988;28;20036;-75
2023/03/26 03:01:25;;;;;;;11.20;2.25;;;7.30;99.90;;;;;;5083289;28;20044;-75
2023/03/26 03:03:51;;;;;;;9.38;2.72;;;7.30;99.90;;;;;;5093223;28;20032;-75
2023/03/26 03:06:17;;;;;;;7.35;2.30;;;7.30;99.90;;;;;;5092367;28;20122;-75
2023/03/26 03:08:47;;;;;;;6.43;2.10;;;7.30;99.90;;;;;;5085302;28;20086;-75
2023/03/26 03:11:16;;;;;;;8.77;2.13;;;7.30;99.90;;;;;;5077047;28;20039;-75
2023/03/26 03:13:43;;;;;;;8.70;2.40;;;7.30;99.90;;;;;;5086168;28;20046;-75
2023/03/26 03:16:09;;;;;;;7.63;2.90;;;7.30;99.90;;;;;;5067025;28;20452;-75
2023/03/26 03:18:35;;;;;;;7.47;2.42;;;7.20;99.90;;;;;;5083993;28;20054;-75
2023/03/26 03:21:01;;;;;;;15.32;2.85;;;7.20;99.90;;;;;;5088049;28;20462;-75
2023/03/26 03:23:27;;;;;;;10.25;2.85;;;7.20;99.90;;;;;;5099949;28;20566;-75
2023/03/26 03:25:55;;;;;;;8.40;2.13;;;7.20;99.90;;;;;;5102521;28;20107;-75
2023/03/26 03:28:22;;;;;;;5.40;2.20;;;7.10;99.90;;;;;;5088703;28;20542;-75
2023/03/26 03:30:51;;;;;;;7.70;2.28;;;7.10;99.90;;;;;;5079612;28;20438;-75
2023/03/26 03:33:19;;;;;;;7.82;2.38;;;7.00;99.90;;;;;;5089735;28;20118;-75
2023/03/26 03:35:48;;;;;;;6.50;2.42;;;7.00;99.90;;;;;;5092002;28;20051;-78
2023/03/26 03:38:18;;;;;;;7.63;2.40;;;6.90;99.90;;;;;;5090612;28;20040;-75
2023/03/26 03:40:43;;;;;;;11.90;2.92;;;6.90;99.90;;;;;;5075824;28;20040;-75
2023/03/26 03:43:09;;;;;;;5.65;2.33;;;6.90;99.90;;;;;;5076611;28;20114;-75
2023/03/26 03:45:35;;;;;;;8.50;2.70;;;6.80;99.90;;;;;;5086871;28;20377;-78
2023/03/26 03:48:00;;;;;;;6.95;2.50;;;6.80;99.90;;;;;;5108106;28;20039;-75
2023/03/26 03:50:26;;;;;;;9.35;2.60;;;6.80;99.90;;;;;;5092734;28;20035;-75
2023/03/26 03:52:52;;;;;;;9.00;2.60;;;6.80;99.90;;;;;;5085519;28;20039;-75
2023/03/26 03:55:17;;;;;;;6.45;2.38;;;6.80;99.90;;;;;;5089189;28;20032;-75
2023/03/26 03:57:43;;;;;;;7.63;2.47;;;6.70;99.90;;;;;;5087275;28;20479;-74
2023/03/26 04:00:10;;;;;;;6.53;2.35;;;6.70;99.90;;;;;;5082513;28;20052;-74
2023/03/26 04:02:36;;;;;;;6.65;2.30;;;6.70;99.90;;;;;;5092098;28;20040;-75
2023/03/26 04:05:03;;;;;;;7.38;2.67;;;6.70;99.90;;;;;;5094539;28;20085;-74
2023/03/26 04:07:31;;;;;;;9.40;2.90;;;6.70;99.90;;;;;;5100831;28;20028;-75
2023/03/26 04:09:58;;;;;;;6.85;2.33;;;6.70;99.90;;;;;;5079830;28;20043;-75
2023/03/26 04:12:27;;;;;;;8.85;2.35;;;6.70;99.90;;;;;;5083737;28;20092;-75
2023/03/26 04:14:54;;;;;;;8.75;2.67;;;6.70;99.90;;;;;;5081578;28;20423;-75
2023/03/26 04:17:20;;;;;;;5.38;2.40;;;6.70;99.90;;;;;;5083609;28;20046;-76
2023/03/26 04:19:46;;;;;;;5.47;2.20;;;6.70;99.90;;;;;;5090100;28;20403;-76
2023/03/26 04:22:12;;;;;;;9.23;2.40;;;6.70;99.90;;;;;;5090085;28;20039;-76
2023/03/26 04:24:39;;;;;;;7.03;2.35;;;6.70;99.90;;;;;;5057159;28;20035;-75
2023/03/26 04:27:07;;;;;;;5.45;2.17;;;6.70;99.90;;;;;;5063029;28;20044;-76
2023/03/26 04:29:41;;;;;;;7.15;2.58;;;6.80;99.90;;;;;;5085692;28;20050;-75
2023/03/26 04:32:13;;;;;;;5.57;2.35;;;6.80;99.90;;;;;;5109529;28;20040;-75
2023/03/26 04:34:38;;;;;;;6.13;2.30;;;6.80;99.90;;;;;;5083402;28;20488;-75
2023/03/26 04:37:04;;;;;;;4.90;2.35;;;6.80;99.90;;;;;;5075173;28;20036;-75
2023/03/26 04:39:32;;;;;;;9.90;2.92;;;6.80;99.90;;;;;;5089429;28;20032;-75
2023/03/26 04:41:59;;;;;;;8.23;2.60;;;6.80;99.90;;;;;;5102376;28;20112;-79
2023/03/26 04:44:24;;;;;;;10.18;3.00;;;6.80;99.90;;;;;;5089849;28;20118;-76
2023/03/26 04:46:54;;;;;;;6.63;2.90;;;6.80;99.90;;;;;;5098856;28;20038;-76
2023/03/26 04:49:19;;;;;;;6.00;2.65;;;6.90;99.90;;;;;;5093339;28;20036;-76
2023/03/26 04:51:45;;;;;;;6.95;2.80;;;6.90;99.90;;;;;;5078325;28;20043;-76
2023/03/26 04:54:13;;;;;;;8.05;2.75;;;6.90;99.90;;;;;;5104361;28;20044;-76
2023/03/26 04:56:47;;;;;;;11.65;2.80;;;6.90;99.90;;;;;;5089430;28;20039;-75
2023/03/26 04:59:17;;;;;;;8.63;2.95;;;7.00;99.90;;;;;;5091260;28;20048;-77
2023/03/26 05:01:44;;;;;;;10.35;2.90;;;7.00;99.90;;;;;;5073445;28;20031;-74
2023/03/26 05:04:12;;;;;;;7.35;2.90;;;7.00;99.90;;;;;;5112899;28;20065;-74
2023/03/26 05:06:38;;;;;;;11.48;2.90;;;7.00;99.90;;;;;;5101703;28;20039;-75
2023/03/26 05:09:04;;;;;;;9.38;2.60;;;7.00;99.90;;;;;;5097793;28;20047;-75
2023/03/26 05:11:30;;;;;;;9.73;2.72;;;7.10;99.90;;;;;;5092740;28;20066;-75
2023/03/26 05:13:56;;;;;;;6.22;2.50;;;7.10;99.90;;;;;;5093239;28;20031;-75
2023/03/26 05:16:22;;;;;;;8.23;2.88;;;7.10;99.90;;;;;;5094938;28;20031;-75
2023/03/26 05:18:48;;;;;;;5.70;2.28;;;7.10;99.90;;;;;;5107818;28;20047;-76
2023/03/26 05:21:14;;;;;;;6.80;2.53;;;7.10;99.90;;;;;;5112402;28;20505;-75
2023/03/26 05:23:39;;;;;;;7.07;2.33;;;7.10;99.90;;;;;;5112667;28;20078;-76
2023/03/26 05:26:06;;;;;;;10.05;2.80;;;7.10;99.90;;;;;;5094020;28;20116;-75
2023/03/26 05:28:32;;;;;;;8.50;2.70;;;7.10;99.90;;;;;;5095216;28;20039;-74
2023/03/26 05:30:57;;;;;;;7.97;2.55;;;7.20;99.90;;;;;;5089844;28;20043;-75
2023/03/26 05:33:23;;;;;;;8.95;2.50;;;7.20;99.90;;;;;;5092355;28;20044;-75
2023/03/26 05:35:58;;;;;;;11.40;2.97;;;7.20;99.90;;;;;;5089852;28;20134;-75
2023/03/26 05:38:24;;;;;;;7.75;2.80;;;7.20;99.90;;;;;;5076641;28;20039;-75
2023/03/26 05:40:50;;;;;;;8.52;2.88;;;7.20;99.90;;;;;;5089447;28;20051;-75
2023/03/26 05:43:15;;;;;;;10.05;3.30;;;7.20;99.90;;;;;;5085878;28;20040;-75
2023/03/26 05:45:41;;;;;;;8.15;3.45;;;7.20;99.90;;;;;;5112673;28;20027;-75
2023/03/26 05:48:06;;;;;;;11.80;3.17;;;7.20;99.90;;;;;;5089615;28;20043;-77
2023/03/26 05:50:32;;;;;;;9.85;2.90;;;7.20;99.90;;;;;;5093577;28;20035;-75
2023/03/26 05:52:57;;;;;;;7.10;2.42;;;7.20;99.90;;;;;;5084161;28;20047;-75
2023/03/26 05:55:23;;;;;;;12.10;3.00;;;7.30;99.90;;;;;;5092429;28;20036;-75
2023/03/26 05:57:48;;;;;;;6.88;2.90;;;7.30;99.90;;;;;;5089096;28;20043;-78
2023/03/26 06:00:15;;;;;;;8.32;3.03;;;7.30;99.90;;;;;;5072280;28;20149;-74
2023/03/26 06:02:41;;;;;;;9.15;2.53;;;7.30;99.90;;;;;;5087623;28;20089;-74
2023/03/26 06:05:08;;;;;;;6.15;2.40;;;7.30;99.90;;;;;;5094175;28;20047;-74
2023/03/26 06:07:34;;;;;;;6.65;2.85;;;7.30;99.90;;;;;;5082148;28;20027;-74
2023/03/26 06:10:01;;;;;;;8.30;2.72;;;7.30;99.90;;;;;;5087060;28;20035;-74
2023/03/26 06:12:27;;;;;;;7.60;3.33;;;7.30;99.90;;;;;;5096123;28;20079;-74
2023/03/26 06:14:52;;;;;;;8.45;2.65;;;7.30;99.90;;;;;;5090760;28;20128;-74
2023/03/26 06:17:18;;;;;;;6.65;2.30;;;7.40;99.90;;;;;;5092094;28;20129;-74
2023/03/26 06:19:43;;;;;;;9.55;3.10;;;7.40;99.90;;;;;;5094642;28;20044;-74
2023/03/26 06:22:09;;;;;;;10.13;2.90;;;7.40;99.90;;;;;;5076830;28;20479;-74
2023/03/26 06:24:35;;;;;;;5.70;2.70;;;7.40;99.90;;;;;;5082835;28;20047;-74
2023/03/26 06:27:00;;;;;;;7.38;2.85;;;7.50;99.90;;;;;;5095288;28;20067;-74
2023/03/26 06:29:26;;;;;;;10.98;2.90;;;7.50;99.90;;;;;;5088951;28;20462;-74
2023/03/26 06:31:54;;;;;;;10.48;2.80;;;7.50;99.90;;;;;;5064639;28;20047;-74
2023/03/26 06:34:19;;;;;;;7.72;2.78;;;7.50;99.90;;;;;;5086540;28;20042;-74
2023/03/26 06:36:47;;;;;;;9.00;2.92;;;7.50;99.90;;;;;;5070519;28;20043;-74
2023/03/26 06:39:13;;;;;;;10.50;3.25;;;7.50;99.90;;;;;;5090140;28;20118;-74
2023/03/26 06:41:40;;;;;;;8.68;3.75;;;7.60;99.90;;;;;;5082037;28;20131;-74
2023/03/26 06:44:05;;;;;;;10.27;3.30;;;7.60;99.90;;;;;;5069643;28;20100;-74
2023/03/26 06:46:31;;;;;;;11.95;3.53;;;7.60;99.90;;;;;;5100345;28;20495;-74
2023/03/26 06:48:57;;;;;;;11.80;3.70;;;7.60;99.90;;;;;;5080228;28;20039;-74
2023/03/26 06:51:22;;;;;;;10.57;3.03;;;7.60;99.90;;;;;;5083354;28;20040;-74
2023/03/26 06:53:48;;;;;;;13.27;3.70;;;7.70;99.90;;;;;;5091533;28;20526;-74
2023/03/26 06:56:15;;;;;;;15.95;3.70;;;7.70;99.90;;;;;;5079312;28;20058;-76
2023/03/26 06:58:40;;;;;;;14.45;3.42;;;7.80;99.90;;;;;;5073084;28;20052;-76
2023/03/26 07:01:06;;;;;;;13.57;3.78;;;7.80;99.90;;;;;;5093479;28;20114;-75
2023/03/26 07:03:32;;;;;;;16.00;3.75;;;7.80;99.90;;;;;;5092599;28;20046;-75
2023/03/26 07:05:57;;;;;;;12.95;3.80;;;7.80;99.90;;;;;;5068422;28;20543;-76
2023/03/26 07:08:23;;;;;;;14.38;3.83;;;7.90;99.90;;;;;;5086818;28;20530;-75
2023/03/26 07:10:48;;;;;;;14.57;3.47;;;7.90;99.90;;;;;;5111714;28;20031;-75
2023/03/26 07:13:14;;;;;;;17.60;3.65;;;7.90;99.90;;;;;;5074952;28;20280;-76
2023/03/26 07:15:40;;;;;;;15.38;3.60;;;8.00;99.90;;;;;;5108320;28;20067;-75
2023/03/26 07:18:06;;;;;;;17.15;3.60;;;8.00;99.90;;;;;;5095262;28;20094;-76
2023/03/26 07:20:31;;;;;;;11.63;2.92;;;8.00;99.90;;;;;;5093306;28;20059;-76
2023/03/26 07:22:57;;;;;;;14.52;3.67;;;8.10;99.90;;;;;;5074442;28;20398;-75
2023/03/26 07:25:23;;;;;;;17.77;3.72;;;8.10;99.90;;;;;;5085280;28;20032;-77
2023/03/26 07:27:58;;;;;;;18.73;3.25;;;8.10;99.90;;;;;;5069305;28;20043;-75
2023/03/26 07:30:40;;;;;;;15.02;3.40;;;8.10;99.90;;;;;;5081602;28;20066;-76
2023/03/26 07:33:38;;;;;;;12.15;3.13;;;8.10;99.90;;;;;;5073268;28;20040;-76
2023/03/26 07:36:19;;;;;;;15.30;3.70;;;8.10;99.90;;;;;;5089824;28;20073;-75
2023/03/26 07:39:22;;;;;;;18.70;3.67;;;8.10;99.90;;;;;;5088020;28;20043;-75
2023/03/26 07:42:08;;;;;;;20.90;3.25;;;8.10;99.90;;;;;;5074006;28;20039;-76
2023/03/26 07:45:01;;;;;;;18.60;3.63;;;8.20;99.90;;;;;;5084800;28;20043;-77
2023/03/26 07:47:28;;;;;;;;;;;8.20;99.90;;;;;;5088669;28;20036;-76
2023/03/26 07:49:56;;;;;;;16.05;3.10;;;8.30;99.90;;;;;;5093249;28;19926;-75
2023/03/26 07:52:22;;;;;;;14.98;3.63;;;8.30;99.90;;;;;;5086687;28;20051;-75
2023/03/26 07:54:48;;;;;;;19.75;3.35;;;8.30;99.90;;;;;;5091949;28;20043;-76
2023/03/26 07:57:35;;;;;;;21.55;3.72;;;8.30;99.90;;;;;;5088866;28;20040;-76
2023/03/26 08:00:11;;;;;;;21.05;4.22;;;8.30;99.90;;;;;;5092602;28;20040;-76
2023/03/26 08:02:44;;;;;;;16.75;4.00;;;8.30;99.90;;;;;;5087075;28;20443;-76
2023/03/26 08:05:32;;;;;;;17.73;3.92;;;8.30;99.90;;;;;;5074226;28;20051;-75
2023/03/26 08:08:24;;;;;;;16.65;3.92;;;8.40;99.90;;;;;;5088203;28;20058;-76
2023/03/26 08:10:53;;;;;;;15.25;3.65;;;8.40;99.90;;;;;;5070374;28;20071;-77
2023/03/26 08:13:26;;;;;;;16.75;3.42;;;8.40;99.90;;;;;;5091550;28;20052;-77
2023/03/26 08:16:01;;;;;;;16.05;3.75;;;8.50;99.90;;;;;;5096060;28;20035;-76
2023/03/26 08:18:48;;;;;;;15.90;4.30;;;8.50;99.90;;;;;;5096209;28;20555;-76
2023/03/26 08:21:32;;;;;;;20.38;5.25;;;8.50;99.90;;;;;;5069022;28;20100;-76
2023/03/26 08:24:11;;;;;;;21.80;7.05;;;8.50;99.90;;;;;;5069589;28;20139;-76
2023/03/26 08:26:58;;;;;;;20.90;5.80;;;8.60;99.90;;;;;;5090846;28;20469;-76
2023/03/26 08:29:45;;;;;;;14.13;3.83;;;8.60;99.90;;;;;;5091053;28;20043;-76
2023/03/26 08:32:17;;;;;;;20.85;3.85;;;8.60;99.90;;;;;;5093567;28;20050;-76
2023/03/26 08:34:45;;;;;;;20.13;3.65;;;8.90;99.90;;;;;;5104692;28;20067;-76
2023/03/26 08:37:11;;;;;;;13.93;3.25;;;8.60;99.90;;;;;;5106057;28;20028;-78
2023/03/26 08:39:38;;;;;;;16.20;3.78;;;8.60;99.90;;;;;;5095737;28;20047;-76
2023/03/26 08:42:22;;;;;;;18.10;3.78;;;8.60;99.90;;;;;;5089045;28;20495;-76
2023/03/26 08:45:12;;;;;;;19.30;3.80;;;8.60;99.90;;;;;;5082931;28;20112;-76
2023/03/26 08:48:00;;;;;;;21.55;3.55;;;8.50;99.90;;;;;;5080361;28;20032;-76
2023/03/26 08:50:44;;;;;;;18.88;3.28;;;8.50;99.90;;;;;;5085648;28;20040;-76
2023/03/26 08:53:41;;;;;;;13.77;2.60;;;8.50;99.90;;;;;;5072251;28;20464;-75
2023/03/26 08:56:31;;;;;;;17.25;3.40;;;8.60;99.90;;;;;;5104273;28;20058;-75
2023/03/26 08:59:29;;;;;;;14.80;2.60;;;9.00;99.90;;;;;;5088474;28;20043;-75
2023/03/26 09:02:13;;;;;;;21.13;3.30;;;8.60;99.90;;;;;;5058712;28;20059;-75
2023/03/26 09:04:51;;;;;;;13.75;3.03;;;8.60;99.90;;;;;;5089131;28;20039;-76
2023/03/26 09:07:38;;;;;;;17.73;3.33;;;8.70;99.90;;;;;;5091347;28;20084;-76
2023/03/26 09:10:27;;;;;;;17.08;3.60;;;8.70;99.90;;;;;;5091035;28;20043;-76
2023/03/26 09:13:34;;;;;;;15.45;3.20;;;8.80;99.90;;;;;;5107399;28;20069;-76
2023/03/26 09:16:06;;;;;;;12.35;3.40;;;8.80;99.90;;;;;;5089175;28;20042;-75
2023/03/26 09:19:00;;;;;;;23.08;5.93;;;8.80;99.90;;;;;;5075945;28;20177;-75
2023/03/26 09:21:58;;;;;;;23.33;5.50;;;8.80;99.90;;;;;;5120312;28;20328;-76
2023/03/26 09:24:54;;;;;;;18.42;3.33;;;8.90;99.90;;;;;;5100267;28;20036;-76
2023/03/26 09:27:29;;;;;;;20.15;3.00;;;8.80;99.90;;;;;;5092080;28;20038;-75
2023/03/26 09:30:15;;;;;;;17.50;2.88;;;8.80;99.90;;;;;;5093077;28;20136;-75
2023/03/26 09:32:41;;;;;;;18.60;3.25;;;8.80;99.90;;;;;;5077804;28;20127;-77
2023/03/26 09:35:10;;;;;;;15.23;2.70;;;8.90;99.90;;;;;;5091209;28;20131;-76
2023/03/26 09:37:58;;;;;;;12.27;2.78;;;8.90;99.90;;;;;;5084487;28;20530;-76
2023/03/26 09:40:42;;;;;;;15.38;2.80;;;8.90;99.90;;;;;;5087672;28;20085;-75
2023/03/26 09:43:53;;;;;;;14.40;2.90;;;9.00;99.90;;;;;;5086409;28;20123;-75
2023/03/26 09:46:40;;;;;;;17.35;3.38;;;9.00;99.90;;;;;;5045365;28;20044;-76
2023/03/26 09:49:09;;;;;;;17.45;3.35;;;9.10;99.90;;;;;;5083106;28;20044;-79
2023/03/26 09:51:57;;;;;;;15.43;3.58;;;9.10;99.90;;;;;;5081415;28;20426;-76
2023/03/26 09:55:00;;;;;;;9.93;2.50;;;9.10;99.90;;;;;;5058721;28;21282;-76
2023/03/26 09:58:09;;;;;;;18.75;3.25;;;9.10;99.90;;;;;;5075940;28;20043;-77
2023/03/26 10:01:20;;;;;;;14.68;2.97;;;9.20;99.90;;;;;;5072698;28;20043;-78
2023/03/26 10:04:19;;;;;;;19.15;3.25;;;9.30;99.90;;;;;;5063949;28;20411;-79
2023/03/26 10:07:07;;;;;;;15.80;3.08;;;9.40;99.90;;;;;;5079339;28;20078;-77
2023/03/26 10:09:51;;;;;;;18.00;3.72;;;9.40;99.90;;;;;;5071800;28;20050;-76
2023/03/26 10:12:37;;;;;;;14.77;4.32;;;9.50;99.90;;;;;;5074855;28;20510;-80
2023/03/26 10:15:17;;;;;;;15.27;3.78;;;9.60;99.90;;;;;;5081150;28;20802;-78
2023/03/26 10:18:07;;;;;;;17.02;3.45;;;9.70;99.90;;;;;;5081576;28;20100;-76
2023/03/26 10:20:47;;;;;;;13.63;2.78;;;9.70;99.90;;;;;;5080532;28;20051;-79
2023/03/26 10:23:17;;;;;;;17.27;3.05;;;9.80;99.90;;;;;;5086100;28;20036;-78
2023/03/26 10:25:50;;;;;;;15.18;2.80;;;9.90;99.90;;;;;;5082480;28;20078;-78
2023/03/26 10:28:31;;;;;;;12.63;2.75;;;9.90;99.90;;;;;;5082646;28;20089;-79
2023/03/26 10:31:21;;;;;;;17.20;2.75;;;10.00;99.90;;;;;;5087732;28;20035;-76
2023/03/26 10:33:56;;;;;;;17.60;3.03;;;10.10;99.90;;;;;;5075210;28;20494;-76
2023/03/26 10:36:49;;;;;;;16.50;2.78;;;10.20;99.90;;;;;;5083140;28;20485;-75
2023/03/26 10:39:50;;;;;;;13.32;2.67;;;10.30;99.90;;;;;;5081272;28;20047;-79
2023/03/26 10:42:50;;;;;;;14.23;2.83;;;10.40;99.90;;;;;;5086692;28;20182;-80
2023/03/26 10:45:43;;;;;;;12.05;2.60;;;10.50;99.90;;;;;;5073358;28;20048;-77
2023/03/26 10:48:27;;;;;;;13.07;3.10;;;10.60;99.90;;;;;;5099875;28;20059;-78
2023/03/26 10:51:08;;;;;;;11.40;2.83;;;10.50;99.90;;;;;;5068530;28;20039;-81
2023/03/26 10:53:58;;;;;;;12.07;3.03;;;10.60;99.90;;;;;;5080225;28;20040;-76
2023/03/26 10:56:48;;;;;;;10.32;2.58;;;10.60;99.90;;;;;;5042633;28;20054;-77
2023/03/26 10:59:16;;;;;;;11.88;2.33;;;10.60;99.90;;;;;;5079402;28;20457;-76
2023/03/26 11:02:09;;;;;;;13.68;2.47;;;10.50;99.90;;;;;;5067529;28;20499;-78
2023/03/26 11:05:02;;;;;;;15.95;2.85;;;10.40;99.90;;;;;;5079546;28;20474;-76
2023/03/26 11:07:39;;;;;;;10.82;2.38;;;10.30;99.90;;;;;;5064850;28;20046;-76
2023/03/26 11:10:10;;;;;;;11.18;2.53;;;10.20;99.90;;;;;;5086154;28;20051;-75
2023/03/26 11:12:53;;;;;;;11.15;2.67;;;10.20;99.90;;;;;;5078888;28;20050;-77
2023/03/26 11:15:34;;;;;;;14.63;3.38;;;10.10;99.90;;;;;;5080252;28;20706;-78
2023/03/26 11:18:19;;;;;;;13.80;3.70;;;10.10;99.90;;;;;;5099359;28;20109;-76
2023/03/26 11:21:04;;;;;;;18.42;6.32;;;10.10;99.90;;;;;;5075274;28;20577;-76
2023/03/26 11:23:48;;;;;;;14.55;3.88;;;10.10;99.90;;;;;;5078868;28;20032;-75
2023/03/26 11:26:15;;;;;;;11.73;3.50;;;10.20;99.90;;;;;;5067730;28;20348;-80
2023/03/26 11:28:53;;;;;;;10.52;3.60;;;10.20;99.90;;;;;;5067518;28;20035;-76
2023/03/26 11:31:34;;;;;;;14.13;2.90;;;10.30;99.90;;;;;;5074950;28;20382;-76
2023/03/26 11:34:05;;;;;;;15.68;2.65;;;10.40;99.90;;;;;;5088172;28;20452;-76
2023/03/26 11:36:40;;;;;;;14.10;3.33;;;10.40;99.90;;;;;;5077462;28;20673;-76
2023/03/26 11:39:12;;;;;;;12.43;2.83;;;10.40;99.90;;;;;;5071523;28;20035;-76
2023/03/26 11:41:38;;;;;;;12.57;2.95;;;10.40;99.90;;;;;;5083742;28;20229;-76
2023/03/26 11:44:20;;;;;;;14.20;2.90;;;10.50;99.90;;;;;;5079715;28;20655;-76
2023/03/26 11:46:50;;;;;;;11.05;2.60;;;10.50;99.90;;;;;;5056124;28;20376;-76
2023/03/26 11:49:19;;;;;;;11.05;2.50;;;10.60;99.90;;;;;;5087270;28;20096;-76
2023/03/26 11:51:47;;;;;;;17.58;3.15;;;10.60;99.90;;;;;;5087721;28;20039;-76
2023/03/26 11:54:14;;;;;;;9.85;2.63;;;10.70;99.90;;;;;;5087817;28;20119;-79
2023/03/26 11:57:00;;;;;;;9.70;2.40;;;11.70;99.90;;;;;;5093545;28;20035;-78
2023/03/26 11:59:28;;;;;;;11.43;2.30;;;10.60;99.90;;;;;;5084814;28;20047;-75
2023/03/26 12:01:59;;;;;;;14.63;3.28;;;10.60;99.90;;;;;;5087281;28;20100;-77
2023/03/26 12:04:42;;;;;;;10.27;2.72;;;10.60;99.90;;;;;;5079301;28;20568;-77
2023/03/26 12:07:21;;;;;;;;;;;10.60;99.90;;;;;;5093416;28;20040;-75
2023/03/26 12:09:56;;;;;;;6.63;2.10;;;10.70;99.90;;;;;;5106453;28;19915;-75
2023/03/26 12:12:30;;;;;;;8.27;2.00;;;10.70;99.90;;;;;;5062481;28;20046;-75
2023/03/26 12:14:56;;;;;;;11.07;2.22;;;10.80;99.90;;;;;;5081751;28;20044;-76
2023/03/26 12:17:28;;;;;;;9.70;2.25;;;10.80;99.90;;;;;;5088933;28;20555;-78
2023/03/26 12:19:54;;;;;;;13.20;2.50;;;10.80;99.90;;;;;;5089638;28;20096;-78
2023/03/26 12:22:36;;;;;;;12.77;2.17;;;10.80;99.90;;;;;;5079131;28;20537;-76
2023/03/26 12:25:16;;;;;;;14.63;2.63;;;10.90;99.90;;;;;;5083814;28;20383;-76
2023/03/26 12:27:51;;;;;;;10.98;2.70;;;11.00;99.90;;;;;;5111795;28;20555;-76
2023/03/26 12:30:46;;;;;;;9.75;2.38;;;11.00;99.90;;;;;;5109858;28;20043;-75
2023/03/26 12:33:18;;;;;;;14.38;3.25;;;11.00;99.90;;;;;;5071966;28;20032;-79
2023/03/26 12:35:43;;;;;;;11.15;2.78;;;11.00;99.90;;;;;;5096882;28;20394;-76
2023/03/26 12:38:23;;;;;;;13.85;3.03;;;10.90;99.90;;;;;;5092920;28;20123;-75
2023/03/26 12:41:05;;;;;;;8.55;2.53;;;10.90;99.90;;;;;;5090176;28;20047;-76
2023/03/26 12:43:39;;;;;;;;;;;10.80;99.90;;;;;;5111647;28;20035;-76
2023/03/26 12:46:19;;;;;;;10.82;2.20;;;10.80;99.90;;;;;;5084406;28;19946;-75
2023/03/26 12:48:45;;;;;;;10.02;2.63;;;10.70;99.90;;;;;;5094880;28;20047;-76
2023/03/26 12:51:28;;;;;;;16.63;3.15;;;10.70;99.90;;;;;;5068475;28;20385;-78
2023/03/26 12:54:14;;;;;;;12.88;3.33;;;10.70;99.90;;;;;;5108701;28;20047;-76
2023/03/26 12:57:01;;;;;;;13.50;3.08;;;10.70;99.90;;;;;;5091326;28;20051;-75
2023/03/26 12:59:37;;;;;;;13.52;3.17;;;10.70;99.90;;;;;;5100548;28;20036;-75
2023/03/26 13:02:31;;;;;;;13.65;2.90;;;10.70;99.90;;;;;;5086844;28;20039;-74
2023/03/26 13:05:28;;;;;;;14.02;3.05;;;10.70;99.90;;;;;;5089201;28;20040;-75
2023/03/26 13:08:17;;;;;;;10.27;2.85;;;10.70;99.90;;;;;;5082346;28;20048;-75
2023/03/26 13:11:00;;;;;;;13.45;3.10;;;10.70;99.90;;;;;;5093874;28;20039;-74
2023/03/26 13:13:39;;;;;;;13.35;3.72;;;10.80;99.90;;;;;;5081643;28;20048;-75
2023/03/26 13:16:28;;;;;;;13.25;2.80;;;10.70;99.90;;;;;;5086446;28;20039;-75
2023/03/26 13:19:03;;;;;;;10.25;2.20;;;10.70;99.90;;;;;;5085058;28;20083;-75
2023/03/26 13:21:59;;;;;;;10.68;2.53;;;10.60;99.90;;;;;;5105005;28;20440;-75
2023/03/26 13:24:48;;;;;;;10.80;2.70;;;10.50;99.90;;;;;;5068719;28;20143;-75
2023/03/26 13:27:39;;;;;;;11.75;2.40;;;10.50;99.90;;;;;;5088046;28;20050;-74
2023/03/26 13:30:24;;;;;;;10.65;2.35;;;10.30;99.90;;;;;;5083498;28;20043;-75